createdAt,value
2018-05-06T08:14:15.750Z,20.52
2018-05-06T08:15:37.576Z,20.33
2018-05-06T08:16:59.774Z,20.23
2018-05-06T08:18:21.973Z,20.13
2018-05-06T08:19:44.057Z,20.21
2018-05-06T08:21:05.889Z,20.23
2018-05-06T08:22:27.705Z,20.11
2018-05-06T08:23:49.835Z,19.91
2018-05-06T08:25:12.361Z,19.88
2018-05-06T08:26:34.627Z,19.68
2018-05-06T08:27:57.217Z,19.59
2018-05-06T08:29:19.792Z,19.61
2018-05-06T08:30:42.359Z,19.76
2018-05-06T08:32:03.999Z,19.87
2018-05-06T08:33:26.537Z,19.77
2018-05-06T08:34:48.513Z,19.73
2018-05-06T08:36:10.170Z,19.77
2018-05-06T08:37:32.762Z,19.71
2018-05-06T08:38:55.225Z,19.73
2018-05-06T08:40:17.511Z,19.92
2018-05-06T08:41:39.767Z,20.01
2018-05-06T08:43:01.722Z,20.08
2018-05-06T08:44:23.993Z,20.21
2018-05-06T08:45:46.667Z,20.1
2018-05-06T08:47:09.421Z,20.03
2018-05-06T08:48:31.960Z,20.01
2018-05-06T08:49:54.489Z,19.87
2018-05-06T08:51:16.128Z,19.81
2018-05-06T08:52:38.566Z,19.91
2018-05-06T08:54:00.507Z,19.81
2018-05-06T08:55:23.088Z,19.95
2018-05-06T08:56:45.669Z,20.03
2018-05-06T08:58:07.618Z,19.99
2018-05-06T08:59:29.897Z,20.06
2018-05-06T09:00:52.574Z,19.99
2018-05-06T09:02:14.876Z,20.02
2018-05-06T09:03:37.481Z,20.05
2018-05-06T09:04:59.180Z,19.99
2018-05-06T09:06:21.409Z,20.01
2018-05-06T09:07:44.026Z,20.11
2018-05-06T09:09:06.564Z,20.06
2018-05-06T09:10:29.119Z,20.14
2018-05-06T09:11:50.779Z,20.18
2018-05-06T09:13:13.027Z,20.38
2018-05-06T09:14:34.982Z,20.35
2018-05-06T09:15:57.553Z,20.57
2018-05-06T09:17:19.815Z,20.62
2018-05-06T09:18:42.089Z,20.8
2018-05-06T09:20:04.545Z,20.88
2018-05-06T09:21:26.810Z,21.06
2018-05-06T09:22:49.635Z,21.13
2018-05-06T09:24:11.901Z,21.16
2018-05-06T09:25:34.424Z,21.19
2018-05-06T09:26:56.523Z,20.99
2018-05-06T09:28:18.845Z,20.98
2018-05-06T09:29:41.666Z,21.01
2018-05-06T09:31:03.921Z,21.09
2018-05-06T09:32:26.277Z,21.07
2018-05-06T09:33:48.518Z,21.01
2018-05-06T09:35:11.080Z,20.88
2018-05-06T09:36:33.643Z,20.87
2018-05-06T09:37:56.068Z,20.95
2018-05-06T09:39:18.330Z,21.14
2018-05-06T09:40:40.516Z,20.97
2018-05-06T09:42:34.919Z,20.97
2018-05-06T09:43:57.479Z,20.82
2018-05-06T09:45:19.944Z,20.92
2018-05-06T09:46:41.920Z,20.98
2018-05-06T09:48:04.645Z,21.04
2018-05-06T09:49:27.194Z,21.31
2018-05-06T09:50:49.718Z,21.47
2018-05-06T09:52:12.315Z,21.47
2018-05-06T09:53:34.577Z,21.56
2018-05-06T09:54:56.732Z,21.59
2018-05-06T09:56:18.940Z,21.71
2018-05-06T09:57:41.485Z,21.61
2018-05-06T09:59:04.076Z,21.52
2018-05-06T10:00:26.690Z,21.52
2018-05-06T10:01:48.857Z,21.62
2018-05-06T10:03:11.343Z,21.58
2018-05-06T10:04:33.584Z,21.49
2018-05-06T10:05:56.162Z,21.47
2018-05-06T10:07:18.405Z,21.32
2018-05-06T10:08:40.667Z,21.34
2018-05-06T10:10:02.918Z,21.46
2018-05-06T10:11:25.487Z,21.4
2018-05-06T10:12:47.097Z,21.58
2018-05-06T10:14:09.018Z,21.56
2018-05-06T10:15:31.577Z,21.61
2018-05-06T10:16:53.893Z,21.69
2018-05-06T10:18:16.153Z,21.75
2018-05-06T10:19:38.689Z,21.68
2018-05-06T10:21:00.920Z,21.74
2018-05-06T10:22:23.564Z,21.67
2018-05-06T10:23:45.441Z,21.71
2018-05-06T10:25:07.751Z,21.88
2018-05-06T10:26:29.746Z,21.79
2018-05-06T10:27:51.997Z,21.77
2018-05-06T10:29:14.343Z,21.68
2018-05-06T10:30:36.588Z,21.77
2018-05-06T10:31:58.313Z,21.88
2018-05-06T10:33:20.881Z,21.8
2018-05-06T10:34:42.838Z,21.82
2018-05-06T10:36:04.786Z,22.03
2018-05-06T10:37:27.021Z,22.15
2018-05-06T10:38:49.509Z,22.35
2018-05-06T10:40:11.423Z,22.57
2018-05-06T10:41:34.054Z,22.39
2018-05-06T10:42:56.650Z,22.22
2018-05-06T10:44:18.837Z,22.18
2018-05-06T10:45:41.673Z,22.15
2018-05-06T10:47:03.395Z,22.07
2018-05-06T10:48:26.098Z,21.96
2018-05-06T10:49:48.704Z,22.05
2018-05-06T10:51:11.421Z,22.24
2018-05-06T10:52:33.310Z,22.2
2018-05-06T10:53:55.279Z,22.36
2018-05-06T10:55:17.775Z,22.33
2018-05-06T10:56:39.972Z,22.25
2018-05-06T10:58:02.304Z,22.3
2018-05-06T10:59:24.557Z,22.39
2018-05-06T11:00:46.835Z,22.35
2018-05-06T11:02:09.412Z,22.21
2018-05-06T11:03:31.324Z,22.24
2018-05-06T11:04:53.265Z,22.24
2018-05-06T11:06:15.821Z,22.28
2018-05-06T11:07:38.394Z,22.49
2018-05-06T11:09:00.951Z,22.72
2018-05-06T11:10:23.124Z,22.58
2018-05-06T11:11:45.604Z,22.49
2018-05-06T11:13:07.862Z,22.72
2018-05-06T11:14:30.449Z,22.77
2018-05-06T11:15:53.002Z,22.76
2018-05-06T11:17:14.948Z,22.92
2018-05-06T11:18:37.177Z,23.01
2018-05-06T11:19:59.125Z,22.92
2018-05-06T11:21:21.689Z,23.02
2018-05-06T11:22:44.228Z,22.88
2018-05-06T11:24:06.206Z,22.86
2018-05-06T11:25:28.465Z,22.82
2018-05-06T11:26:51.256Z,22.77
2018-05-06T11:28:13.835Z,22.9
2018-05-06T11:29:35.792Z,22.82
2018-05-06T11:30:58.363Z,22.92
2018-05-06T11:32:20.900Z,22.98
2018-05-06T11:33:43.172Z,22.82
2018-05-06T11:35:05.440Z,22.77
2018-05-06T11:36:27.421Z,22.76
2018-05-06T11:37:49.915Z,22.85
2018-05-06T11:39:12.455Z,23.02
2018-05-06T11:40:34.991Z,23.02
2018-05-06T11:41:57.253Z,23.09
2018-05-06T11:43:19.213Z,23.13
2018-05-06T11:44:41.770Z,23.16
2018-05-06T11:46:03.684Z,23.27
2018-05-06T11:47:25.944Z,23.35
2018-05-06T11:48:47.892Z,23.32
2018-05-06T11:50:10.420Z,23.31
2018-05-06T11:51:32.662Z,23.47
2018-05-06T11:52:54.905Z,23.61
2018-05-06T11:54:17.429Z,23.57
2018-05-06T11:55:40.062Z,23.39
2018-05-06T11:57:02.641Z,23.33
2018-05-06T11:58:24.590Z,23.53
2018-05-06T11:59:46.858Z,23.65
2018-05-06T12:01:09.483Z,23.79
2018-05-06T12:02:31.260Z,23.72
2018-05-06T12:03:53.854Z,23.73
2018-05-06T12:05:15.830Z,23.75
2018-05-06T12:06:38.004Z,23.76
2018-05-06T12:08:00.831Z,23.65
2018-05-06T12:09:23.169Z,23.5
2018-05-06T12:10:44.800Z,23.5
2018-05-06T12:12:07.071Z,23.42
2018-05-06T12:13:29.618Z,23.54
2018-05-06T12:14:52.425Z,23.38
2018-05-06T12:16:15.048Z,23.4
2018-05-06T12:17:37.633Z,23.54
2018-05-06T12:18:59.915Z,23.61
2018-05-06T12:20:22.478Z,23.47
2018-05-06T12:21:44.409Z,23.39
2018-05-06T12:23:07.065Z,23.32
2018-05-06T12:24:29.591Z,23.32
2018-05-06T12:25:52.165Z,23.38
2018-05-06T12:27:14.692Z,23.5
2018-05-06T12:28:36.884Z,23.57
2018-05-06T12:29:59.462Z,23.57
2018-05-06T12:31:22.032Z,23.61
2018-05-06T12:32:44.659Z,23.58
2018-05-06T12:34:07.227Z,23.66
2018-05-06T12:35:29.773Z,23.79
2018-05-06T12:36:52.168Z,23.6
2018-05-06T12:38:14.428Z,23.73
2018-05-06T12:39:36.725Z,23.7
2018-05-06T12:40:58.791Z,23.8
2018-05-06T12:42:21.364Z,23.93
2018-05-06T12:43:43.467Z,23.94
2018-05-06T12:45:05.727Z,23.83
2018-05-06T12:46:27.989Z,23.75
2018-05-06T12:47:50.254Z,23.78
2018-05-06T12:49:12.839Z,23.84
2018-05-06T12:50:35.104Z,23.87
2018-05-06T12:51:57.359Z,23.8
2018-05-06T12:53:19.945Z,23.87
2018-05-06T12:54:42.546Z,23.97
2018-05-06T12:56:04.771Z,24.05
2018-05-06T12:57:27.006Z,23.93
2018-05-06T12:58:49.383Z,23.88
2018-05-06T13:00:11.349Z,24
2018-05-06T13:01:33.899Z,23.95
2018-05-06T13:02:56.049Z,24.02
2018-05-06T13:04:17.396Z,24.06
2018-05-06T13:05:39.658Z,24.15
2018-05-06T13:07:01.876Z,24.25
2018-05-06T13:08:23.524Z,24.25
2018-05-06T13:09:45.773Z,24.31
2018-05-06T13:11:08.329Z,24.4
2018-05-06T13:12:30.886Z,24.47
2018-05-06T13:13:53.115Z,24.58
2018-05-06T13:15:15.941Z,24.42
2018-05-06T13:16:38.196Z,24.57
2018-05-06T13:18:00.142Z,24.61
2018-05-06T13:19:22.674Z,24.64
2018-05-06T13:20:45.180Z,24.67
2018-05-06T13:22:07.727Z,24.62
2018-05-06T13:23:30.008Z,24.65
2018-05-06T13:24:51.974Z,24.83
2018-05-06T13:26:14.222Z,24.8
2018-05-06T13:27:36.756Z,24.81
2018-05-06T13:28:58.969Z,24.84
2018-05-06T13:30:20.922Z,24.77
2018-05-06T13:31:42.950Z,24.76
2018-05-06T13:33:04.900Z,24.84
2018-05-06T13:34:27.130Z,24.84
2018-05-06T13:35:49.404Z,24.98
2018-05-06T13:37:11.974Z,25
2018-05-06T13:38:33.983Z,25.1
2018-05-06T13:39:55.948Z,25.09
2018-05-06T13:41:18.168Z,25.09
2018-05-06T13:42:40.736Z,25.13
2018-05-06T13:44:03.399Z,25.14
2018-05-06T13:45:25.565Z,25.13
2018-05-06T13:46:47.765Z,25.28
2018-05-06T13:48:09.719Z,25.38
2018-05-06T13:49:31.677Z,25.2
2018-05-06T13:50:54.288Z,25.17
2018-05-06T13:52:17.086Z,25.1
2018-05-06T13:53:39.356Z,25.15
2018-05-06T13:55:02.243Z,25.2
2018-05-06T13:56:24.770Z,25.33
2018-05-06T13:57:47.311Z,25.24
2018-05-06T13:59:09.293Z,25.17
2018-05-06T14:00:31.558Z,25.15
2018-05-06T14:01:54.160Z,25.1
2018-05-06T14:03:16.409Z,25.13
2018-05-06T14:04:38.659Z,25.13
2018-05-06T14:06:00.576Z,25.17
2018-05-06T14:07:23.144Z,25.15
2018-05-06T14:08:45.401Z,25.14
2018-05-06T14:10:07.855Z,25.1
2018-05-06T14:11:29.812Z,25.09
2018-05-06T14:12:52.298Z,24.98
2018-05-06T14:14:14.563Z,24.9
2018-05-06T14:15:36.507Z,25.02
2018-05-06T14:16:58.718Z,25.09
2018-05-06T14:18:21.298Z,25.15
2018-05-06T14:19:43.261Z,25.1
2018-05-06T14:21:05.802Z,25.18
2018-05-06T14:22:28.612Z,25.15
2018-05-06T14:23:51.130Z,25.15
2018-05-06T14:25:13.395Z,25.14
2018-05-06T14:26:35.969Z,25.13
2018-05-06T14:27:57.604Z,25.2
2018-05-06T14:29:19.548Z,25.4
2018-05-06T14:30:41.821Z,25.32
2018-05-06T14:32:03.775Z,25.14
2018-05-06T14:33:25.719Z,25.15
2018-05-06T14:34:47.689Z,25.13
2018-05-06T14:36:10.261Z,25.08
2018-05-06T14:37:32.515Z,25.08
2018-05-06T14:38:54.736Z,25.17
2018-05-06T14:40:17.341Z,25.21
2018-05-06T14:41:39.910Z,25.23
2018-05-06T14:43:02.430Z,25.18
2018-05-06T14:44:24.760Z,25.25
2018-05-06T14:45:47.364Z,25.14
2018-05-06T14:47:09.907Z,25.09
2018-05-06T14:48:32.371Z,25.1
2018-05-06T14:49:54.250Z,25.24
2018-05-06T14:51:16.175Z,25.18
2018-05-06T14:52:38.411Z,25.24
2018-05-06T14:54:00.937Z,25.14
2018-05-06T14:55:23.249Z,25.15
2018-05-06T14:56:45.817Z,25.18
2018-05-06T14:58:08.407Z,25.21
2018-05-06T14:59:30.966Z,25.25
2018-05-06T15:00:53.802Z,25.3
2018-05-06T15:02:15.691Z,25.24
2018-05-06T15:03:38.281Z,25.28
2018-05-06T15:05:00.241Z,25.27
2018-05-06T15:06:51.863Z,25.21
2018-05-06T15:08:14.129Z,25.14
2018-05-06T15:09:36.459Z,25.24
2018-05-06T15:10:59.027Z,25.21
2018-05-06T15:12:21.597Z,25.33
2018-05-06T15:13:44.176Z,25.33
2018-05-06T15:15:06.814Z,25.33
2018-05-06T15:16:29.058Z,25.24
2018-05-06T15:17:51.304Z,25.13
2018-05-06T15:19:13.825Z,25.13
2018-05-06T15:20:36.654Z,25.15
2018-05-06T15:21:58.879Z,25.23
2018-05-06T15:23:21.445Z,25.24
2018-05-06T15:24:44.005Z,25.28
2018-05-06T15:26:06.248Z,25.24
2018-05-06T15:27:28.463Z,25.36
2018-05-06T15:28:50.400Z,25.42
2018-05-06T15:30:12.944Z,25.32
2018-05-06T15:31:35.170Z,25.25
2018-05-06T15:32:57.741Z,25.23
2018-05-06T15:34:19.707Z,25.18
2018-05-06T15:35:41.968Z,25.21
2018-05-06T15:37:04.643Z,25.24
2018-05-06T15:38:26.901Z,25.15
2018-05-06T15:39:49.464Z,25.14
2018-05-06T15:41:11.859Z,25.06
2018-05-06T15:42:34.355Z,24.96
2018-05-06T15:43:56.621Z,25
2018-05-06T15:45:19.216Z,25
2018-05-06T15:46:41.468Z,25.05
2018-05-06T15:48:03.493Z,25.08
2018-05-06T15:49:26.047Z,25.05
2018-05-06T15:50:48.477Z,25.1
2018-05-06T15:52:10.713Z,25.2
2018-05-06T15:53:33.248Z,25.08
2018-05-06T15:54:55.496Z,25.05
2018-05-06T15:56:18.128Z,25
2018-05-06T15:57:40.740Z,24.98
2018-05-06T15:59:03.306Z,24.95
2018-05-06T16:00:25.884Z,25.08
2018-05-06T16:01:47.835Z,25.02
2018-05-06T16:03:09.501Z,25.05
2018-05-06T16:04:31.763Z,24.98
2018-05-06T16:05:54.323Z,24.9
2018-05-06T16:07:16.601Z,24.93
2018-05-06T16:08:39.182Z,25
2018-05-06T16:10:01.747Z,25.08
2018-05-06T16:11:23.682Z,25
2018-05-06T16:12:46.236Z,25
2018-05-06T16:14:08.781Z,24.99
2018-05-06T16:15:31.275Z,24.98
2018-05-06T16:16:53.813Z,24.98
2018-05-06T16:18:16.126Z,25.06
2018-05-06T16:19:38.688Z,25.03
2018-05-06T16:21:00.931Z,24.96
2018-05-06T16:22:23.215Z,24.93
2018-05-06T16:23:46.023Z,24.83
2018-05-06T16:25:08.345Z,24.83
2018-05-06T16:26:30.940Z,24.84
2018-05-06T16:27:53.670Z,24.87
2018-05-06T16:29:15.987Z,24.77
2018-05-06T16:30:38.210Z,24.84
2018-05-06T16:32:00.139Z,24.83
2018-05-06T16:33:22.103Z,24.83
2018-05-06T16:34:43.735Z,24.8
2018-05-06T16:36:06.290Z,24.81
2018-05-06T16:37:28.553Z,24.8
2018-05-06T16:38:50.708Z,24.83
2018-05-06T16:40:12.683Z,24.78
2018-05-06T16:41:35.281Z,24.69
2018-05-06T16:42:57.848Z,24.58
2018-05-06T16:44:20.415Z,24.71
2018-05-06T16:45:43.324Z,24.61
2018-05-06T16:47:05.990Z,24.58
2018-05-06T16:48:28.567Z,24.55
2018-05-06T16:49:51.090Z,24.57
2018-05-06T16:51:13.631Z,24.58
2018-05-06T16:52:36.133Z,24.57
2018-05-06T16:53:58.799Z,24.45
2018-05-06T16:55:21.324Z,24.4
2018-05-06T16:56:43.972Z,24.42
2018-05-06T16:58:06.300Z,24.43
2018-05-06T16:59:28.268Z,24.39
2018-05-06T17:00:50.774Z,24.35
2018-05-06T17:02:13.330Z,24.31
2018-05-06T17:03:35.556Z,24.31
2018-05-06T17:04:58.127Z,24.37
2018-05-06T17:06:20.539Z,24.21
2018-05-06T17:07:42.735Z,24.13
2018-05-06T17:09:05.270Z,24.18
2018-05-06T17:10:27.233Z,24.22
2018-05-06T17:11:49.454Z,24.13
2018-05-06T17:13:12.086Z,24.13
2018-05-06T17:14:34.643Z,24.12
2018-05-06T17:15:56.613Z,24.12
2018-05-06T17:17:18.874Z,24.08
2018-05-06T17:18:41.477Z,23.97
2018-05-06T17:20:04.035Z,23.95
2018-05-06T17:21:26.831Z,24.02
2018-05-06T17:22:49.316Z,23.91
2018-05-06T17:24:11.937Z,23.88
2018-05-06T17:25:34.571Z,23.88
2018-05-06T17:26:56.531Z,23.83
2018-05-06T17:28:19.137Z,23.8
2018-05-06T17:29:41.373Z,23.76
2018-05-06T17:31:04.053Z,23.69
2018-05-06T17:32:26.649Z,23.7
2018-05-06T17:33:49.541Z,23.65
2018-05-06T17:35:11.804Z,23.65
2018-05-06T17:36:33.764Z,23.6
2018-05-06T17:37:56.312Z,23.53
2018-05-06T17:39:18.936Z,23.42
2018-05-06T17:40:41.220Z,23.36
2018-05-06T17:42:03.534Z,23.35
2018-05-06T17:43:26.164Z,23.32
2018-05-06T17:44:48.689Z,23.27
2018-05-06T17:46:10.657Z,23.19
2018-05-06T17:47:33.238Z,23.01
2018-05-06T17:48:55.484Z,23.09
2018-05-06T17:50:17.863Z,22.98
2018-05-06T17:51:40.422Z,22.92
2018-05-06T17:53:02.336Z,22.91
2018-05-06T17:54:24.989Z,22.88
2018-05-06T17:55:47.574Z,22.88
2018-05-06T17:57:09.266Z,22.8
2018-05-06T17:58:32.083Z,22.79
2018-05-06T17:59:54.351Z,22.61
2018-05-06T18:01:16.318Z,22.62
2018-05-06T18:02:38.248Z,22.7
2018-05-06T18:04:00.829Z,22.6
2018-05-06T18:05:23.387Z,22.62
2018-05-06T18:06:45.971Z,22.51
2018-05-06T18:08:08.194Z,22.46
2018-05-06T18:09:30.436Z,22.4
2018-05-06T18:10:53.312Z,22.39
2018-05-06T18:12:15.860Z,22.28
2018-05-06T18:13:38.102Z,22.18
2018-05-06T18:15:00.370Z,22.22
2018-05-06T18:16:22.926Z,22.17
2018-05-06T18:17:45.479Z,22.09
2018-05-06T18:19:07.552Z,21.99
2018-05-06T18:20:30.199Z,21.96
2018-05-06T18:21:52.145Z,21.9
2018-05-06T18:23:14.999Z,21.86
2018-05-06T18:24:37.683Z,21.72
2018-05-06T18:26:00.225Z,21.77
2018-05-06T18:27:22.185Z,21.68
2018-05-06T18:28:44.727Z,21.56
2018-05-06T18:30:07.304Z,21.46
2018-05-06T18:31:29.855Z,21.5
2018-05-06T18:32:52.112Z,21.34
2018-05-06T18:34:14.653Z,21.37
2018-05-06T18:35:36.889Z,21.28
2018-05-06T18:36:59.441Z,21.19
2018-05-06T18:38:21.698Z,21.13
2018-05-06T18:39:44.271Z,21.12
2018-05-06T18:41:06.740Z,21.04
2018-05-06T18:42:29.913Z,21.09
2018-05-06T18:43:52.472Z,20.98
2018-05-06T18:45:15.138Z,20.88
2018-05-06T18:46:37.460Z,20.82
2018-05-06T18:47:59.680Z,20.74
2018-05-06T18:49:22.226Z,20.76
2018-05-06T18:50:44.206Z,20.61
2018-05-06T18:52:06.773Z,20.59
2018-05-06T18:53:28.730Z,20.52
2018-05-06T18:54:51.278Z,20.51
2018-05-06T18:56:12.592Z,20.38
2018-05-06T18:57:34.901Z,20.31
2018-05-06T18:58:57.464Z,20.35
2018-05-06T19:00:20.015Z,20.21
2018-05-06T19:01:42.529Z,20.26
2018-05-06T19:03:05.101Z,20.1
2018-05-06T19:04:27.365Z,20.08
2018-05-06T19:05:49.898Z,19.96
2018-05-06T19:07:12.143Z,19.99
2018-05-06T19:08:35.063Z,19.87
2018-05-06T19:09:56.719Z,19.81
2018-05-06T19:11:18.678Z,19.71
2018-05-06T19:12:40.675Z,19.61
2018-05-06T19:14:02.904Z,19.58
2018-05-06T19:15:25.434Z,19.44
2018-05-06T19:16:47.723Z,19.48
2018-05-06T19:18:10.293Z,19.4
2018-05-06T19:19:32.812Z,19.36
2018-05-06T19:20:55.369Z,19.39
2018-05-06T19:22:17.387Z,19.29
2018-05-06T19:23:40.210Z,19.18
2018-05-06T19:25:02.468Z,19.11
2018-05-06T19:26:24.805Z,19.1
2018-05-06T19:27:47.036Z,18.95
2018-05-06T19:29:09.653Z,19.08
2018-05-06T19:30:32.336Z,19.02
2018-05-06T19:31:54.650Z,18.94
2018-05-06T19:33:16.617Z,18.9
2018-05-06T19:34:39.225Z,18.9
2018-05-06T19:36:01.740Z,18.82
2018-05-06T19:37:24.006Z,18.78
2018-05-06T19:38:46.623Z,18.72
2018-05-06T19:40:09.209Z,18.67
2018-05-06T19:41:31.531Z,18.69
2018-05-06T19:42:54.062Z,18.63
2018-05-06T19:44:16.599Z,18.51
2018-05-06T19:45:38.839Z,18.5
2018-05-06T19:47:00.494Z,18.5
2018-05-06T19:48:22.716Z,18.35
2018-05-06T19:49:45.574Z,18.33
2018-05-06T19:51:07.860Z,18.35
2018-05-06T19:52:30.686Z,18.2
2018-05-06T19:53:52.621Z,18.23
2018-05-06T19:55:14.614Z,18.26
2018-05-06T19:56:36.837Z,18.07
2018-05-06T19:57:59.358Z,18.07
2018-05-06T19:59:21.939Z,18.05
2018-05-06T20:00:44.795Z,18.07
2018-05-06T20:02:07.223Z,17.96
2018-05-06T20:03:29.517Z,17.9
2018-05-06T20:04:51.471Z,17.9
2018-05-06T20:06:14.057Z,17.82
2018-05-06T20:07:36.727Z,17.77
2018-05-06T20:08:59.373Z,17.86
2018-05-06T20:10:21.670Z,17.75
2018-05-06T20:11:44.343Z,17.79
2018-05-06T20:13:07.007Z,17.82
2018-05-06T20:14:29.250Z,17.79
2018-05-06T20:15:51.769Z,17.74
2018-05-06T20:17:14.375Z,17.71
2018-05-06T20:18:36.911Z,17.64
2018-05-06T20:19:59.775Z,17.54
2018-05-06T20:21:22.034Z,17.58
2018-05-06T20:22:44.404Z,17.64
2018-05-06T20:24:06.617Z,17.55
2018-05-06T20:25:28.524Z,17.52
2018-05-06T20:26:50.797Z,17.51
2018-05-06T20:28:13.367Z,17.51
2018-05-06T20:29:35.887Z,17.43
2018-05-06T20:30:58.089Z,17.49
2018-05-06T20:32:20.037Z,17.43
2018-05-06T20:33:42.236Z,17.52
2018-05-06T20:35:04.619Z,17.44
2018-05-06T20:36:26.563Z,17.31
2018-05-06T20:37:48.733Z,17.37
2018-05-06T20:39:11.247Z,17.34
2018-05-06T20:40:33.704Z,17.36
2018-05-06T20:41:55.610Z,17.31
2018-05-06T20:43:17.501Z,17.23
2018-05-06T20:44:39.948Z,17.21
2018-05-06T20:46:01.928Z,17.12
2018-05-06T20:47:24.433Z,17.07
2018-05-06T20:48:46.577Z,16.98
2018-05-06T20:50:08.972Z,16.93
2018-05-06T20:51:31.120Z,16.96
2018-05-06T20:52:53.275Z,16.86
2018-05-06T20:54:15.446Z,16.88
2018-05-06T20:55:36.981Z,16.76
2018-05-06T20:56:59.299Z,16.73
2018-05-06T20:58:21.424Z,16.82
2018-05-06T20:59:43.505Z,16.67
2018-05-06T21:01:05.564Z,16.67
2018-05-06T21:02:27.667Z,16.52
2018-05-06T21:03:50.150Z,16.46
2018-05-06T21:05:12.048Z,16.49
2018-05-06T21:06:34.188Z,16.45
2018-05-06T21:07:56.200Z,16.41
2018-05-06T21:09:18.330Z,16.48
2018-05-06T21:10:39.723Z,16.46
2018-05-06T21:12:01.559Z,16.39
2018-05-06T21:13:23.135Z,16.27
2018-05-06T21:14:45.331Z,16.34
2018-05-06T21:16:07.171Z,16.28
2018-05-06T21:17:29.200Z,16.21
2018-05-06T21:18:50.786Z,16.11
2018-05-06T21:20:12.588Z,16.07
2018-05-06T21:21:34.418Z,16.08
2018-05-06T21:22:56.522Z,15.96
2018-05-06T21:24:18.121Z,15.9
2018-05-06T21:25:40.204Z,15.83
2018-05-06T21:27:02.303Z,15.84
2018-05-06T21:28:24.114Z,15.84
2018-05-06T21:29:46.162Z,15.74
2018-05-06T21:31:08.329Z,15.78
2018-05-06T21:32:30.561Z,15.57
2018-05-06T21:33:52.659Z,15.72
2018-05-06T21:35:14.573Z,15.71
2018-05-06T21:36:36.400Z,15.67
2018-05-06T21:37:58.558Z,15.67
2018-05-06T21:39:20.606Z,15.64
2018-05-06T21:40:42.916Z,15.6
2018-05-06T21:42:05.036Z,15.51
2018-05-06T21:43:26.805Z,15.46
2018-05-06T21:44:48.846Z,15.41
2018-05-06T21:46:11.228Z,15.47
2018-05-06T21:47:33.053Z,15.56
2018-05-06T21:48:55.121Z,15.53
2018-05-06T21:50:17.203Z,15.53
2018-05-06T21:51:39.316Z,15.46
2018-05-06T21:53:01.652Z,15.53
2018-05-06T21:54:23.686Z,15.53
2018-05-06T21:55:45.320Z,15.43
2018-05-06T21:57:07.132Z,15.39
2018-05-06T21:58:29.209Z,15.27
2018-05-06T21:59:51.022Z,15.14
2018-05-06T22:01:13.119Z,15.02
2018-05-06T22:02:34.941Z,15.02
2018-05-06T22:03:57.046Z,14.96
2018-05-06T22:05:18.869Z,14.84
2018-05-06T22:06:40.967Z,14.84
2018-05-06T22:08:02.509Z,14.84
2018-05-06T22:09:24.603Z,14.75
2018-05-06T22:10:46.692Z,14.84
2018-05-06T22:12:08.541Z,14.91
2018-05-06T22:13:30.618Z,14.91
2018-05-06T22:14:52.692Z,14.94
2018-05-06T22:16:14.512Z,14.91
2018-05-06T22:17:36.344Z,14.88
2018-05-06T22:18:58.189Z,14.8
2018-05-06T22:20:20.011Z,14.8
2018-05-06T22:21:41.816Z,14.8
2018-05-06T22:23:03.890Z,14.69
2018-05-06T22:24:25.477Z,14.58
2018-05-06T22:25:47.549Z,14.58
2018-05-06T22:27:09.380Z,14.51
2018-05-06T22:28:30.931Z,14.47
2018-05-06T22:29:52.763Z,14.51
2018-05-06T22:31:14.842Z,14.5
2018-05-06T22:32:36.929Z,14.47
2018-05-06T22:33:59.010Z,14.4
2018-05-06T22:35:21.192Z,14.36
2018-05-06T22:36:43.295Z,14.35
2018-05-06T22:38:05.120Z,14.39
2018-05-06T22:39:26.688Z,14.28
2018-05-06T22:40:48.523Z,14.29
2018-05-06T22:42:10.622Z,14.21
2018-05-06T22:43:32.699Z,14.27
2018-05-06T22:44:54.793Z,14.2
2018-05-06T22:46:16.869Z,14.1
2018-05-06T22:47:38.451Z,14.04
2018-05-06T22:49:00.515Z,13.91
2018-05-06T22:50:22.583Z,13.89
2018-05-06T22:51:44.483Z,13.78
2018-05-06T22:53:06.369Z,13.84
2018-05-06T22:54:28.438Z,13.81
2018-05-06T22:55:50.254Z,13.79
2018-05-06T22:57:12.067Z,13.73
2018-05-06T22:58:33.610Z,13.69
2018-05-06T22:59:55.709Z,13.57
2018-05-06T23:01:17.805Z,13.62
2018-05-06T23:02:39.636Z,13.54
2018-05-06T23:04:01.190Z,13.57
2018-05-06T23:05:23.272Z,13.54
2018-05-06T23:06:45.173Z,13.55
2018-05-06T23:08:07.263Z,13.57
2018-05-06T23:09:29.358Z,13.55
2018-05-06T23:10:51.164Z,13.63
2018-05-06T23:12:12.985Z,13.62
2018-05-06T23:13:34.800Z,13.57
2018-05-06T23:14:56.340Z,13.46
2018-05-06T23:16:18.509Z,13.54
2018-05-06T23:17:40.365Z,13.57
2018-05-06T23:19:02.310Z,13.48
2018-05-06T23:20:24.426Z,13.44
2018-05-06T23:21:46.636Z,13.42
2018-05-06T23:23:08.129Z,13.49
2018-05-06T23:24:29.701Z,13.42
2018-05-06T23:25:50.981Z,13.42
2018-05-06T23:27:13.065Z,13.42
2018-05-06T23:28:34.941Z,13.44
2018-05-06T23:29:57.244Z,13.33
2018-05-06T23:31:19.375Z,13.32
2018-05-06T23:32:41.200Z,13.32
2018-05-06T23:34:03.008Z,13.3
2018-05-06T23:35:25.092Z,13.26
2018-05-06T23:36:46.734Z,13.22
2018-05-06T23:38:08.793Z,13.05
2018-05-06T23:39:30.937Z,13.12
2018-05-06T23:40:52.222Z,12.97
2018-05-06T23:42:14.303Z,12.97
2018-05-06T23:43:36.380Z,12.86
2018-05-06T23:44:58.251Z,12.82
2018-05-06T23:46:20.070Z,12.77
2018-05-06T23:47:41.871Z,12.7
2018-05-06T23:49:04.037Z,12.59
2018-05-06T23:50:25.841Z,12.57
2018-05-06T23:51:47.653Z,12.49
2018-05-06T23:53:09.721Z,12.52
2018-05-06T23:54:31.885Z,12.45
2018-05-06T23:55:53.449Z,12.39
2018-05-06T23:57:14.993Z,12.45
2018-05-06T23:58:37.341Z,12.42
2018-05-06T23:59:59.185Z,12.34
